createdAt,value
2023-01-29T00:00:38.292Z,3.54
2023-01-29T00:03:23.993Z,3.53
2023-01-29T00:06:10.544Z,3.54
2023-01-29T00:08:57.264Z,3.56
2023-01-29T00:11:43.416Z,3.59
2023-01-29T00:14:29.245Z,3.64
2023-01-29T00:17:15.389Z,3.59
2023-01-29T00:20:01.531Z,3.68
2023-01-29T00:22:47.620Z,3.69
2023-01-29T00:25:33.318Z,3.70
2023-01-29T00:28:19.406Z,3.72
2023-01-29T00:31:16.038Z,3.69
2023-01-29T00:34:03.679Z,3.65
2023-01-29T00:36:49.847Z,3.63
2023-01-29T00:39:47.381Z,3.63
2023-01-29T00:42:52.170Z,3.61
2023-01-29T00:45:38.690Z,3.59
2023-01-29T00:48:24.926Z,3.52
2023-01-29T00:51:10.566Z,3.54
2023-01-29T00:53:58.358Z,3.54
2023-01-29T00:56:44.131Z,3.48
2023-01-29T00:59:30.107Z,3.48
2023-01-29T01:02:35.226Z,3.43
2023-01-29T01:05:23.107Z,3.40
2023-01-29T01:08:29.208Z,3.37
2023-01-29T01:11:16.428Z,3.37
2023-01-29T01:14:02.276Z,3.34
2023-01-29T01:16:49.131Z,3.22
2023-01-29T01:19:35.622Z,3.29
2023-01-29T01:22:21.647Z,3.25
2023-01-29T01:25:07.809Z,3.23
2023-01-29T01:30:44.844Z,3.16
2023-01-29T01:33:30.642Z,3.14
2023-01-29T01:36:17.214Z,3.10
2023-01-29T01:39:03.545Z,3.09
2023-01-29T01:41:49.225Z,3.05
2023-01-29T01:45:04.567Z,3.04
2023-01-29T01:48:01.541Z,3.02
2023-01-29T01:50:54.121Z,3.04
2023-01-29T01:53:43.177Z,3.05
2023-01-29T01:56:38.521Z,3.04
2023-01-29T01:59:24.310Z,3.05
2023-01-29T02:02:28.590Z,3.00
2023-01-29T02:05:33.913Z,2.96
2023-01-29T02:08:56.647Z,3.00
2023-01-29T02:11:42.623Z,2.99
2023-01-29T02:14:28.595Z,3.05
2023-01-29T02:17:19.224Z,3.04
2023-01-29T02:20:27.710Z,3.06
2023-01-29T02:23:27.262Z,3.07
2023-01-29T02:26:23.282Z,3.06
2023-01-29T02:29:35.462Z,3.09
2023-01-29T02:32:24.286Z,3.13
2023-01-29T02:35:34.727Z,3.16
2023-01-29T02:38:58.335Z,3.19
2023-01-29T02:42:03.320Z,3.24
2023-01-29T02:44:55.403Z,3.27
2023-01-29T02:48:01.894Z,3.29
2023-01-29T02:51:10.918Z,3.32
2023-01-29T02:54:23.902Z,3.30
2023-01-29T02:57:50.371Z,3.31
2023-01-29T03:00:40.443Z,3.31
2023-01-29T03:03:31.522Z,3.28
2023-01-29T03:06:26.249Z,3.21
2023-01-29T03:09:35.099Z,3.16
2023-01-29T03:12:50.295Z,3.16
2023-01-29T03:15:47.026Z,3.14
2023-01-29T03:19:11.672Z,3.11
2023-01-29T03:22:01.279Z,3.11
2023-01-29T03:25:10.546Z,3.14
2023-01-29T03:28:21.622Z,3.13
2023-01-29T03:31:29.331Z,3.14
2023-01-29T03:34:24.799Z,3.17
2023-01-29T03:37:22.211Z,3.17
2023-01-29T03:40:09.733Z,3.17
2023-01-29T03:43:02.901Z,3.14
2023-01-29T03:46:14.395Z,3.12
2023-01-29T03:49:14.350Z,3.10
2023-01-29T03:52:18.849Z,3.12
2023-01-29T03:55:21.707Z,3.13
2023-01-29T03:58:22.195Z,3.13
2023-01-29T04:01:21.657Z,3.16
2023-01-29T04:04:37.084Z,3.18
2023-01-29T04:07:26.744Z,3.15
2023-01-29T04:10:25.537Z,3.14
2023-01-29T04:13:12.980Z,3.15
2023-01-29T04:16:01.789Z,3.11
2023-01-29T04:19:10.661Z,3.08
2023-01-29T04:22:22.700Z,3.06
2023-01-29T04:25:16.380Z,3.03
2023-01-29T04:28:47.627Z,3.06
2023-01-29T04:31:44.379Z,3.06
2023-01-29T04:34:37.396Z,3.07
2023-01-29T04:37:50.579Z,3.10
2023-01-29T04:40:54.966Z,3.07
2023-01-29T04:43:55.973Z,3.06
2023-01-29T04:47:05.107Z,3.05
2023-01-29T04:50:14.536Z,3.02
2023-01-29T04:53:09.244Z,3.02
2023-01-29T04:56:06.418Z,2.98
2023-01-29T04:58:56.323Z,2.97
2023-01-29T05:01:43.922Z,2.99
2023-01-29T05:04:32.474Z,3.02
2023-01-29T05:07:20.128Z,3.04
2023-01-29T05:10:07.828Z,3.04
2023-01-29T05:13:01.272Z,3.00
2023-01-29T05:16:24.163Z,3.00
2023-01-29T05:19:12.281Z,3.02
2023-01-29T05:21:58.915Z,3.00
2023-01-29T05:24:44.968Z,3.04
2023-01-29T05:27:54.424Z,3.00
2023-01-29T05:30:40.385Z,2.90
2023-01-29T05:33:28.414Z,3.01
2023-01-29T05:36:14.086Z,3.05
2023-01-29T05:38:59.854Z,3.02
2023-01-29T05:41:45.717Z,3.03
2023-01-29T05:44:31.566Z,2.97
2023-01-29T05:47:20.836Z,2.96
2023-01-29T05:50:07.302Z,2.93
2023-01-29T05:52:59.683Z,2.92
2023-01-29T05:55:47.007Z,2.96
2023-01-29T05:58:33.842Z,2.90
2023-01-29T06:01:21.896Z,2.91
2023-01-29T06:04:07.504Z,2.84
2023-01-29T06:06:53.337Z,2.87
2023-01-29T06:09:38.984Z,2.88
2023-01-29T06:12:24.800Z,2.92
2023-01-29T06:15:11.967Z,2.96
2023-01-29T06:17:58.015Z,2.94
2023-01-29T06:20:43.616Z,2.88
2023-01-29T06:23:31.316Z,2.97
2023-01-29T06:26:17.142Z,2.96
2023-01-29T06:29:02.985Z,2.95
2023-01-29T06:31:48.817Z,2.99
2023-01-29T06:34:34.984Z,3.01
2023-01-29T06:37:20.530Z,3.02
2023-01-29T06:40:07.130Z,3.01
2023-01-29T06:42:52.988Z,2.98
2023-01-29T06:45:38.664Z,3.01
2023-01-29T06:48:25.511Z,3.03
2023-01-29T06:51:11.784Z,3.08
2023-01-29T06:53:57.920Z,3.05
2023-01-29T06:56:43.969Z,3.08
2023-01-29T06:59:29.784Z,3.05
2023-01-29T07:02:16.058Z,3.07
2023-01-29T07:05:02.977Z,3.06
2023-01-29T07:07:48.582Z,3.05
2023-01-29T07:10:34.246Z,3.06
2023-01-29T07:13:20.124Z,3.08
2023-01-29T07:16:07.024Z,3.08
2023-01-29T07:18:53.001Z,3.05
2023-01-29T07:21:38.861Z,3.05
2023-01-29T07:24:24.953Z,3.08
2023-01-29T07:27:10.846Z,3.10
2023-01-29T07:29:56.621Z,3.10
2023-01-29T07:32:42.476Z,3.06
2023-01-29T07:35:28.271Z,3.08
2023-01-29T07:38:14.113Z,3.10
2023-01-29T07:41:03.008Z,3.10
2023-01-29T07:43:48.917Z,3.11
2023-01-29T07:46:34.561Z,3.13
2023-01-29T07:49:20.615Z,3.15
2023-01-29T07:52:06.393Z,3.15
2023-01-29T07:54:52.065Z,3.16
2023-01-29T07:57:38.771Z,3.16
2023-01-29T08:00:24.429Z,3.23
2023-01-29T08:03:16.103Z,3.26
2023-01-29T08:06:05.022Z,3.28
2023-01-29T08:08:57.626Z,3.26
2023-01-29T08:11:43.966Z,3.26
2023-01-29T08:14:29.751Z,3.28
2023-01-29T08:17:16.039Z,3.29
2023-01-29T08:20:03.236Z,3.25
2023-01-29T08:22:50.073Z,3.21
2023-01-29T08:25:36.628Z,3.27
2023-01-29T08:28:22.766Z,3.27
2023-01-29T08:31:16.475Z,3.25
2023-01-29T08:34:02.313Z,3.32
2023-01-29T08:36:48.255Z,3.37
2023-01-29T08:39:34.644Z,3.40
2023-01-29T08:42:20.595Z,3.41
2023-01-29T08:45:07.149Z,3.42
2023-01-29T08:47:52.869Z,3.36
2023-01-29T08:50:38.770Z,3.30
2023-01-29T08:53:24.998Z,3.26
2023-01-29T08:56:11.118Z,3.22
2023-01-29T08:58:58.300Z,3.23
2023-01-29T09:01:44.194Z,3.24
2023-01-29T09:04:29.940Z,3.28
2023-01-29T09:07:15.690Z,3.28
2023-01-29T09:10:01.966Z,3.28
2023-01-29T09:12:48.081Z,3.34
2023-01-29T09:15:33.773Z,3.37
2023-01-29T09:18:22.144Z,3.41
2023-01-29T09:21:08.372Z,3.44
2023-01-29T09:23:54.157Z,3.48
2023-01-29T09:26:40.264Z,3.53
2023-01-29T09:29:26.191Z,3.53
2023-01-29T09:32:12.019Z,3.61
2023-01-29T09:34:57.986Z,3.69
2023-01-29T09:37:48.096Z,3.73
2023-01-29T09:41:04.652Z,3.78
2023-01-29T09:43:55.192Z,3.83
2023-01-29T09:46:43.818Z,3.87
2023-01-29T09:49:35.653Z,3.90
2023-01-29T09:52:28.181Z,3.92
2023-01-29T09:55:45.504Z,3.94
2023-01-29T09:58:36.179Z,3.96
2023-01-29T10:01:38.727Z,3.89
2023-01-29T10:04:40.941Z,3.89
2023-01-29T10:07:36.994Z,3.84
2023-01-29T10:10:41.718Z,3.83
2023-01-29T10:13:57.256Z,3.84
2023-01-29T10:16:43.045Z,3.91
2023-01-29T10:20:07.748Z,3.89
2023-01-29T10:23:07.333Z,3.87
2023-01-29T10:25:54.249Z,3.87
2023-01-29T10:28:46.512Z,3.89
2023-01-29T10:31:36.613Z,3.88
2023-01-29T10:34:48.750Z,3.96
2023-01-29T10:37:43.629Z,4.05
2023-01-29T10:40:38.571Z,4.14
2023-01-29T10:43:33.302Z,4.21
2023-01-29T10:47:06.972Z,4.24
2023-01-29T10:50:04.526Z,4.25
2023-01-29T10:53:08.407Z,4.24
2023-01-29T10:56:31.848Z,4.27
2023-01-29T10:59:26.560Z,4.33
2023-01-29T11:02:16.616Z,4.36
2023-01-29T11:05:02.313Z,4.34
2023-01-29T11:07:48.592Z,4.35
2023-01-29T11:10:39.720Z,4.34
2023-01-29T11:13:31.901Z,4.32
2023-01-29T11:16:17.680Z,4.32
2023-01-29T11:19:03.628Z,4.33
2023-01-29T11:22:01.894Z,4.33
2023-01-29T11:25:08.298Z,4.29
2023-01-29T11:28:01.862Z,4.26
2023-01-29T11:30:47.793Z,4.23
2023-01-29T11:33:33.596Z,4.22
2023-01-29T11:36:38.208Z,4.21
2023-01-29T11:39:25.712Z,4.22
2023-01-29T11:42:20.109Z,4.21
2023-01-29T11:45:25.770Z,4.27
2023-01-29T11:48:17.577Z,4.33
2023-01-29T11:51:05.607Z,4.38
2023-01-29T11:54:01.122Z,4.41
2023-01-29T11:56:48.207Z,4.35
2023-01-29T11:59:39.796Z,4.30
2023-01-29T12:02:30.769Z,4.27
2023-01-29T12:05:22.607Z,4.18
2023-01-29T12:08:17.605Z,4.23
2023-01-29T12:11:13.094Z,4.23
2023-01-29T12:14:01.592Z,4.26
2023-01-29T12:16:55.411Z,4.32
2023-01-29T12:19:41.180Z,4.28
2023-01-29T12:22:45.487Z,4.37
2023-01-29T12:25:52.295Z,4.41
2023-01-29T12:28:59.604Z,4.50
2023-01-29T12:31:54.524Z,4.56
2023-01-29T12:34:55.687Z,4.55
2023-01-29T12:37:52.397Z,4.56
2023-01-29T12:40:47.241Z,4.55
2023-01-29T12:43:41.352Z,4.49
2023-01-29T12:46:30.329Z,4.43
2023-01-29T12:49:24.899Z,4.36
2023-01-29T12:52:21.742Z,4.33
2023-01-29T12:55:26.725Z,4.29
2023-01-29T12:58:25.434Z,4.21
2023-01-29T13:01:19.595Z,4.15
2023-01-29T13:04:12.112Z,4.09
2023-01-29T13:07:11.908Z,3.98
2023-01-29T13:10:05.783Z,3.93
2023-01-29T13:13:00.814Z,3.86
2023-01-29T13:15:48.007Z,3.82
2023-01-29T13:18:55.269Z,3.75
2023-01-29T13:21:44.163Z,3.72
2023-01-29T13:24:40.310Z,3.73
2023-01-29T13:27:29.157Z,3.73
2023-01-29T13:30:44.582Z,3.71
2023-01-29T13:33:31.014Z,3.78
2023-01-29T13:36:25.717Z,3.80
2023-01-29T13:39:23.626Z,3.77
2023-01-29T13:42:21.492Z,3.73
2023-01-29T13:45:08.786Z,3.75
2023-01-29T13:48:17.707Z,3.75
2023-01-29T13:51:04.908Z,3.73
2023-01-29T13:53:58.069Z,3.78
2023-01-29T13:56:59.397Z,3.81
2023-01-29T13:59:50.294Z,3.84
2023-01-29T14:02:37.625Z,3.85
2023-01-29T14:05:29.789Z,3.83
2023-01-29T14:08:15.731Z,3.80
2023-01-29T14:11:13.609Z,3.77
2023-01-29T14:13:59.409Z,3.79
2023-01-29T14:16:45.267Z,3.82
2023-01-29T14:19:31.432Z,3.84
2023-01-29T14:22:22.905Z,3.83
2023-01-29T14:25:18.513Z,3.81
2023-01-29T14:28:05.685Z,3.75
2023-01-29T14:30:52.823Z,3.73
2023-01-29T14:33:41.816Z,3.70
2023-01-29T14:36:29.936Z,3.67
2023-01-29T14:39:33.138Z,3.64
2023-01-29T14:42:29.918Z,3.63
2023-01-29T14:45:22.231Z,3.60
2023-01-29T14:48:11.160Z,3.62
2023-01-29T14:50:59.527Z,3.60
2023-01-29T14:53:58.636Z,3.59
2023-01-29T14:56:57.325Z,3.59
2023-01-29T14:59:55.431Z,3.58
2023-01-29T15:02:43.979Z,3.57
2023-01-29T15:05:36.408Z,3.52
2023-01-29T15:08:30.260Z,3.47
2023-01-29T15:11:36.486Z,3.46
2023-01-29T15:14:29.899Z,3.42
2023-01-29T15:17:20.020Z,3.44
2023-01-29T15:20:33.448Z,3.43
2023-01-29T15:23:34.853Z,3.40
2023-01-29T15:26:24.223Z,3.41
2023-01-29T15:29:23.357Z,3.37
2023-01-29T15:32:17.121Z,3.40
2023-01-29T15:35:07.407Z,3.40
2023-01-29T15:38:05.599Z,3.43
2023-01-29T15:40:52.483Z,3.40
2023-01-29T15:43:44.099Z,3.43
2023-01-29T15:46:33.820Z,3.44
2023-01-29T15:49:36.207Z,3.43
2023-01-29T15:52:28.862Z,3.42
2023-01-29T15:55:15.684Z,3.39
2023-01-29T15:58:04.271Z,3.40
2023-01-29T16:00:54.535Z,3.39
2023-01-29T16:03:40.630Z,3.41
2023-01-29T16:06:27.120Z,3.38
2023-01-29T16:09:19.900Z,3.39
2023-01-29T16:12:05.933Z,3.41
2023-01-29T16:14:52.037Z,3.40
2023-01-29T16:17:40.965Z,3.35
2023-01-29T16:20:46.004Z,3.40
2023-01-29T16:23:35.965Z,3.41
2023-01-29T16:26:28.367Z,3.37
2023-01-29T16:29:21.885Z,3.33
2023-01-29T16:32:10.018Z,3.26
2023-01-29T16:34:58.256Z,3.25
2023-01-29T16:37:49.060Z,3.19
2023-01-29T16:40:37.718Z,3.19
2023-01-29T16:43:43.744Z,3.20
2023-01-29T16:46:35.908Z,3.17
2023-01-29T16:49:31.029Z,3.17
2023-01-29T16:52:27.085Z,3.14
2023-01-29T16:55:12.957Z,3.15
2023-01-29T16:58:03.930Z,3.12
2023-01-29T17:00:53.576Z,3.12
2023-01-29T17:03:40.488Z,3.12
2023-01-29T17:06:27.375Z,3.11
2023-01-29T17:09:22.829Z,3.11
2023-01-29T17:12:17.383Z,3.12
2023-01-29T17:15:19.812Z,3.06
2023-01-29T17:18:19.426Z,3.07
2023-01-29T17:21:05.252Z,3.05
2023-01-29T17:23:51.730Z,3.07
2023-01-29T17:26:37.960Z,3.06
2023-01-29T17:29:26.841Z,3.13
2023-01-29T17:32:13.129Z,3.14
2023-01-29T17:35:00.527Z,3.12
2023-01-29T17:37:46.681Z,3.11
2023-01-29T17:40:39.693Z,3.07
2023-01-29T17:43:27.097Z,3.10
2023-01-29T17:46:17.779Z,3.09
2023-01-29T17:49:22.696Z,3.07
2023-01-29T17:52:09.180Z,3.06
2023-01-29T17:54:55.242Z,3.10
2023-01-29T17:57:41.040Z,3.01
2023-01-29T18:00:26.935Z,3.09
2023-01-29T18:03:13.405Z,3.08
2023-01-29T18:06:00.157Z,3.03
2023-01-29T18:08:45.887Z,3.03
2023-01-29T18:11:31.611Z,3.03
2023-01-29T18:14:18.105Z,3.03
2023-01-29T18:17:04.225Z,3.05
2023-01-29T18:20:15.271Z,3.06
2023-01-29T18:23:04.412Z,3.11
2023-01-29T18:25:50.456Z,3.10
2023-01-29T18:28:36.608Z,3.07
2023-01-29T18:31:22.740Z,3.06
2023-01-29T18:34:08.973Z,3.07
2023-01-29T18:36:56.142Z,3.05
2023-01-29T18:39:42.184Z,3.06
2023-01-29T18:42:31.377Z,3.05
2023-01-29T18:45:17.515Z,3.06
2023-01-29T18:48:03.914Z,3.06
2023-01-29T18:50:50.717Z,3.06
2023-01-29T18:53:36.812Z,3.04
2023-01-29T18:56:22.830Z,3.03
2023-01-29T18:59:10.637Z,3.03
2023-01-29T19:01:57.351Z,3.04
2023-01-29T19:04:43.095Z,3.06
2023-01-29T19:07:29.306Z,3.13
2023-01-29T19:10:17.084Z,3.19
2023-01-29T19:13:04.355Z,3.25
2023-01-29T19:15:51.721Z,3.30
2023-01-29T19:18:37.841Z,3.33
2023-01-29T19:21:24.687Z,3.35
2023-01-29T19:24:11.940Z,3.34
2023-01-29T19:26:58.028Z,3.36
2023-01-29T19:29:43.755Z,3.36
2023-01-29T19:32:31.913Z,3.34
2023-01-29T19:35:18.087Z,3.37
2023-01-29T19:38:04.962Z,3.38
2023-01-29T19:40:52.158Z,3.40
2023-01-29T19:43:41.019Z,3.39
2023-01-29T19:46:27.086Z,3.39
2023-01-29T19:49:13.240Z,3.41
2023-01-29T19:52:01.700Z,3.40
2023-01-29T19:54:48.090Z,3.34
2023-01-29T19:57:34.577Z,3.32
2023-01-29T20:00:21.623Z,3.37
2023-01-29T20:03:07.851Z,3.38
2023-01-29T20:05:53.787Z,3.46
2023-01-29T20:08:41.448Z,3.49
2023-01-29T20:11:27.216Z,3.45
2023-01-29T20:14:13.315Z,3.49
2023-01-29T20:16:59.297Z,3.47
2023-01-29T20:19:45.336Z,3.47
2023-01-29T20:22:31.517Z,3.46
2023-01-29T20:25:17.898Z,3.47
2023-01-29T20:28:05.931Z,3.46
2023-01-29T20:30:55.648Z,3.48
2023-01-29T20:33:41.654Z,3.48
2023-01-29T20:36:28.150Z,3.47
2023-01-29T20:39:14.085Z,3.45
2023-01-29T20:41:59.921Z,3.48
2023-01-29T20:44:45.833Z,3.49
2023-01-29T20:47:31.774Z,3.49
2023-01-29T20:50:19.999Z,3.48
2023-01-29T20:53:06.667Z,3.48
2023-01-29T20:55:52.725Z,3.43
2023-01-29T20:58:41.258Z,3.49
2023-01-29T21:01:27.291Z,3.48
2023-01-29T21:04:15.131Z,3.45
2023-01-29T21:07:00.987Z,3.46
2023-01-29T21:09:49.096Z,3.42
2023-01-29T21:12:35.705Z,3.43
2023-01-29T21:15:21.718Z,3.39
2023-01-29T21:18:11.163Z,3.35
2023-01-29T21:20:56.963Z,3.22
2023-01-29T21:23:42.955Z,3.32
2023-01-29T21:26:29.125Z,3.28
2023-01-29T21:29:15.251Z,3.19
2023-01-29T21:32:01.368Z,3.22
2023-01-29T21:34:47.671Z,3.21
2023-01-29T21:37:36.933Z,3.26
2023-01-29T21:40:26.830Z,3.27
2023-01-29T21:43:13.195Z,3.30
2023-01-29T21:46:03.005Z,3.31
2023-01-29T21:48:49.217Z,3.34
2023-01-29T21:51:35.055Z,3.30
2023-01-29T21:54:22.194Z,3.37
2023-01-29T21:57:12.693Z,3.33
2023-01-29T21:59:59.679Z,3.35
2023-01-29T22:02:46.336Z,3.31
2023-01-29T22:05:37.160Z,3.27
2023-01-29T22:08:23.222Z,3.31
2023-01-29T22:11:10.399Z,3.30
2023-01-29T22:13:56.473Z,3.25
2023-01-29T22:16:42.631Z,3.20
2023-01-29T22:19:29.642Z,3.20
2023-01-29T22:22:16.877Z,3.16
2023-01-29T22:25:03.440Z,3.10
2023-01-29T22:27:50.270Z,3.13
2023-01-29T22:30:36.173Z,3.11
2023-01-29T22:33:21.938Z,3.15
2023-01-29T22:36:08.876Z,3.14
2023-01-29T22:38:55.213Z,3.19
2023-01-29T22:41:41.242Z,3.21
2023-01-29T22:44:27.501Z,3.22
2023-01-29T22:47:13.413Z,3.24
2023-01-29T22:49:59.747Z,3.26
2023-01-29T22:52:54.194Z,3.27
2023-01-29T22:55:40.285Z,3.27
2023-01-29T22:58:36.695Z,3.27
2023-01-29T23:01:25.690Z,3.32
2023-01-29T23:04:11.577Z,3.29
2023-01-29T23:06:57.978Z,3.31
2023-01-29T23:09:44.045Z,3.30
2023-01-29T23:12:29.940Z,3.29
2023-01-29T23:15:15.864Z,3.18
2023-01-29T23:18:01.756Z,3.24
2023-01-29T23:20:49.061Z,3.22
2023-01-29T23:23:36.350Z,3.20
2023-01-29T23:26:40.841Z,3.17
2023-01-29T23:29:27.120Z,3.13
2023-01-29T23:32:20.605Z,3.17
2023-01-29T23:35:06.945Z,3.15
2023-01-29T23:37:54.054Z,3.18
2023-01-29T23:40:40.002Z,3.18
2023-01-29T23:43:26.971Z,3.21
2023-01-29T23:46:13.103Z,3.18
2023-01-29T23:48:59.209Z,3.20
2023-01-29T23:51:48.057Z,3.21
2023-01-29T23:54:34.067Z,3.22
2023-01-29T23:57:21.117Z,3.22
